Time;durP1;ratioP1;P1;durP2;ratioP2;P2;SDS_P1;SDS_P2;PMS_P1;PMS_P2;Temp;Humidity;BMP_temperature;BMP_pressure;BME280_temperature;BME280_humidity;BME280_pressure;Samples;Min_cycle;Max_cycle;Signal;HPM_P1;HPM_P2
2023/02/10 00:00:43;;;;;;;36.67;20.10;;;2.50;99.90;;;;;;4971542;28;20438;-61
2023/02/10 00:03:08;;;;;;;41.25;20.08;;;2.50;99.90;;;;;;4971181;28;20046;-61
2023/02/10 00:05:34;;;;;;;39.55;20.00;;;2.50;99.90;;;;;;4969859;28;20110;-61
2023/02/10 00:07:59;;;;;;;33.25;19.35;;;2.50;99.90;;;;;;4971151;28;20035;-61
2023/02/10 00:10:25;;;;;;;37.42;20.80;;;2.60;99.90;;;;;;4970322;28;20442;-61
2023/02/10 00:12:51;;;;;;;39.35;21.42;;;2.60;99.90;;;;;;4971840;28;20465;-61
2023/02/10 00:15:16;;;;;;;35.30;19.88;;;2.60;99.90;;;;;;4971695;28;20026;-61
2023/02/10 00:17:42;;;;;;;37.28;21.30;;;2.60;99.90;;;;;;4970873;28;20416;-60
2023/02/10 00:20:08;;;;;;;30.75;19.02;;;2.60;99.90;;;;;;4970804;28;20045;-61
2023/02/10 00:22:34;;;;;;;39.47;20.73;;;2.60;99.90;;;;;;4971902;28;20033;-59
2023/02/10 00:24:59;;;;;;;45.40;21.40;;;2.60;99.90;;;;;;4970422;28;20500;-60
2023/02/10 00:27:25;;;;;;;43.20;20.25;;;2.60;99.90;;;;;;4971712;28;20035;-61
2023/02/10 00:29:51;;;;;;;36.50;19.38;;;2.60;99.90;;;;;;4970781;28;20031;-59
2023/02/10 00:32:17;;;;;;;35.38;18.45;;;2.70;99.90;;;;;;4970903;28;20089;-59
2023/02/10 00:34:44;;;;;;;39.08;19.63;;;2.70;99.90;;;;;;4971264;28;20031;-59
2023/02/10 00:37:10;;;;;;;46.67;19.92;;;2.60;99.90;;;;;;4969075;28;20037;-60
2023/02/10 00:39:35;;;;;;;36.10;18.92;;;2.60;99.90;;;;;;4970557;28;20027;-59
2023/02/10 00:42:01;;;;;;;35.92;20.05;;;2.60;99.90;;;;;;4971658;28;20015;-61
2023/02/10 00:44:26;;;;;;;31.83;18.00;;;2.60;99.90;;;;;;4970464;28;20066;-58
2023/02/10 00:46:52;;;;;;;34.70;18.83;;;2.60;99.90;;;;;;4970378;28;20019;-60
2023/02/10 00:49:17;;;;;;;37.22;19.65;;;2.60;99.90;;;;;;4969475;28;20098;-61
2023/02/10 00:51:43;;;;;;;37.72;19.08;;;2.60;99.90;;;;;;4970714;28;20449;-61
2023/02/10 00:54:12;;;;;;;36.90;18.67;;;2.60;99.90;;;;;;4969140;28;20421;-56
2023/02/10 00:56:38;;;;;;;35.22;18.48;;;2.60;99.90;;;;;;4969357;28;20031;-60
2023/02/10 00:59:04;;;;;;;41.65;19.55;;;2.70;99.90;;;;;;4969043;28;20027;-59
2023/02/10 01:01:29;;;;;;;37.63;19.48;;;2.60;99.90;;;;;;4969838;28;20460;-60
2023/02/10 01:03:55;;;;;;;32.58;19.38;;;2.70;99.90;;;;;;4970064;28;20486;-60
2023/02/10 01:06:21;;;;;;;35.15;18.13;;;2.60;99.90;;;;;;4969849;28;20054;-58
2023/02/10 01:08:46;;;;;;;33.67;18.13;;;2.70;99.90;;;;;;4966952;28;20041;-62
2023/02/10 01:11:13;;;;;;;32.75;17.65;;;2.70;99.90;;;;;;4969126;28;20031;-61
2023/02/10 01:13:40;;;;;;;35.78;19.10;;;2.60;99.90;;;;;;4969960;28;20035;-59
2023/02/10 01:16:11;;;;;;;35.42;18.23;;;2.70;99.90;;;;;;4969988;28;20042;-59
2023/02/10 01:18:38;;;;;;;36.55;19.10;;;2.70;99.90;;;;;;4970255;28;20555;-61
2023/02/10 01:21:13;;;;;;;41.72;19.52;;;2.70;99.90;;;;;;4968601;28;20611;-59
2023/02/10 01:23:39;;;;;;;34.05;17.85;;;2.70;99.90;;;;;;4969862;28;20588;-60
2023/02/10 01:26:04;;;;;;;33.28;18.23;;;2.70;99.90;;;;;;4969231;28;20050;-61
2023/02/10 01:28:30;;;;;;;30.65;17.80;;;2.70;99.90;;;;;;4969862;28;20066;-59
2023/02/10 01:30:56;;;;;;;36.50;17.95;;;2.70;99.90;;;;;;4969846;28;20508;-61
2023/02/10 01:33:22;;;;;;;30.23;19.50;;;2.70;99.90;;;;;;4969879;28;20169;-59
2023/02/10 01:35:47;;;;;;;33.33;18.00;;;2.70;99.90;;;;;;4969671;28;20502;-60
2023/02/10 01:38:13;;;;;;;34.42;18.67;;;2.80;99.90;;;;;;4968216;28;20342;-60
2023/02/10 01:40:38;;;;;;;42.25;19.48;;;2.80;99.90;;;;;;4968788;28;20405;-60
2023/02/10 01:43:14;;;;;;;25.88;16.50;;;2.80;99.90;;;;;;4969500;28;20509;-58
2023/02/10 01:45:40;;;;;;;38.10;18.35;;;2.80;99.90;;;;;;4968886;28;20031;-60
2023/02/10 01:48:07;;;;;;;39.55;17.67;;;2.70;99.90;;;;;;4968988;28;20417;-61
2023/02/10 01:50:44;;;;;;;44.63;18.02;;;2.70;99.90;;;;;;4968888;28;20030;-62
2023/02/10 01:53:10;;;;;;;28.52;16.60;;;2.70;99.90;;;;;;4969590;28;20023;-61
2023/02/10 01:55:40;;;;;;;33.08;17.95;;;2.60;99.90;;;;;;4969777;28;20033;-60
2023/02/10 01:58:09;;;;;;;37.75;17.90;;;2.60;99.90;;;;;;4967355;28;20037;-62
2023/02/10 02:00:35;;;;;;;30.80;16.80;;;2.60;99.90;;;;;;4966881;28;20034;-60
2023/02/10 02:03:02;;;;;;;36.08;17.38;;;2.50;99.90;;;;;;4966298;28;20037;-60
2023/02/10 02:05:37;;;;;;;36.58;17.02;;;2.50;99.90;;;;;;4967981;28;20094;-59
2023/02/10 02:08:14;;;;;;;31.10;16.25;;;2.40;99.90;;;;;;4968213;28;20027;-61
2023/02/10 02:10:54;;;;;;;31.98;16.38;;;2.50;99.90;;;;;;4968180;28;20029;-60
2023/02/10 02:13:39;;;;;;;34.85;15.45;;;2.50;99.90;;;;;;4968861;28;20411;-62
2023/02/10 02:16:04;;;;;;;30.30;16.13;;;2.40;99.90;;;;;;4969231;28;20029;-61
2023/02/10 02:18:56;;;;;;;40.95;17.85;;;2.40;99.90;;;;;;4969320;28;20109;-60
2023/02/10 02:21:42;;;;;;;27.70;15.85;;;2.40;99.90;;;;;;4964717;28;20061;-58
2023/02/10 02:24:27;;;;;;;33.20;15.48;;;2.30;99.90;;;;;;4970146;28;20031;-61
2023/02/10 02:27:17;;;;;;;26.90;15.23;;;2.30;99.90;;;;;;4969042;28;20027;-61
2023/02/10 02:30:07;;;;;;;29.02;14.73;;;2.30;99.90;;;;;;4969332;28;20026;-61
2023/02/10 02:33:02;;;;;;;30.05;14.88;;;2.20;99.90;;;;;;4966978;28;20023;-62
2023/02/10 02:35:36;;;;;;;29.05;15.43;;;2.20;99.90;;;;;;4966714;28;20489;-60
2023/02/10 02:38:02;;;;;;;29.65;15.15;;;2.20;99.90;;;;;;4969168;28;20030;-60
2023/02/10 02:40:28;;;;;;;26.85;15.35;;;2.20;99.90;;;;;;4969065;28;20034;-59
2023/02/10 02:42:53;;;;;;;31.02;15.00;;;2.10;99.90;;;;;;4968927;28;20023;-60
2023/02/10 02:45:23;;;;;;;31.83;13.80;;;2.10;99.90;;;;;;4969439;28;20027;-60
2023/02/10 02:48:08;;;;;;;28.75;15.27;;;2.10;99.90;;;;;;4967794;28;20038;-61
2023/02/10 02:50:35;;;;;;;27.83;14.02;;;2.00;99.90;;;;;;4968080;28;20055;-58
2023/02/10 02:53:19;;;;;;;28.88;15.38;;;2.00;99.90;;;;;;4969017;28;20052;-58
2023/02/10 02:55:48;;;;;;;41.33;16.08;;;2.00;99.90;;;;;;4968242;28;20035;-59
2023/02/10 02:58:34;;;;;;;33.30;15.98;;;2.00;99.90;;;;;;4968069;28;20031;-59
2023/02/10 03:01:05;;;;;;;30.10;16.00;;;2.00;99.90;;;;;;4967953;28;20047;-61
2023/02/10 03:03:35;;;;;;;27.45;15.65;;;2.00;99.90;;;;;;4967445;28;20045;-60
2023/02/10 03:06:01;;;;;;;26.10;15.90;;;2.00;99.90;;;;;;4968637;28;20552;-59
2023/02/10 03:08:29;;;;;;;29.98;15.13;;;2.10;99.90;;;;;;4968264;28;20027;-59
2023/02/10 03:10:54;;;;;;;36.58;15.30;;;2.10;99.90;;;;;;4968676;28;20441;-60
2023/02/10 03:13:20;;;;;;;28.73;15.38;;;2.20;99.90;;;;;;4969159;28;20026;-61
2023/02/10 03:15:45;;;;;;;35.47;16.77;;;2.10;99.90;;;;;;4968057;28;20156;-59
2023/02/10 03:18:11;;;;;;;28.63;15.40;;;2.20;99.90;;;;;;4969131;28;20026;-58
2023/02/10 03:20:38;;;;;;;26.50;15.52;;;2.20;99.90;;;;;;4967444;28;20108;-59
2023/02/10 03:23:03;;;;;;;28.23;15.23;;;2.20;99.90;;;;;;4969156;28;20190;-58
2023/02/10 03:25:29;;;;;;;30.73;15.95;;;2.20;99.90;;;;;;4968698;28;20505;-59
2023/02/10 03:27:55;;;;;;;30.02;15.43;;;2.20;99.90;;;;;;4968218;28;20057;-60
2023/02/10 03:30:20;;;;;;;31.40;16.83;;;2.20;99.90;;;;;;4968512;28;20035;-60
2023/02/10 03:32:48;;;;;;;27.30;15.20;;;2.20;99.90;;;;;;4968669;28;20046;-62
2023/02/10 03:35:14;;;;;;;28.45;14.38;;;2.10;99.90;;;;;;4969110;28;20105;-61
2023/02/10 03:37:39;;;;;;;26.73;16.20;;;2.10;99.90;;;;;;4969315;28;20114;-57
2023/02/10 03:40:05;;;;;;;25.25;15.32;;;2.10;99.90;;;;;;4968892;28;20027;-61
2023/02/10 03:42:31;;;;;;;33.75;16.90;;;2.20;99.90;;;;;;4968039;28;20042;-59
2023/02/10 03:44:56;;;;;;;26.90;15.50;;;2.20;99.90;;;;;;4969093;28;20037;-59
2023/02/10 03:47:22;;;;;;;29.63;15.82;;;2.20;99.90;;;;;;4968779;28;20042;-60
2023/02/10 03:49:47;;;;;;;31.90;15.60;;;2.20;99.90;;;;;;4968785;28;20031;-60
2023/02/10 03:52:13;;;;;;;32.28;16.73;;;2.20;99.90;;;;;;4968516;28;20465;-56
2023/02/10 03:54:39;;;;;;;38.17;19.75;;;2.20;99.90;;;;;;4968889;28;20062;-61
2023/02/10 03:57:05;;;;;;;30.17;16.77;;;2.20;99.90;;;;;;4968254;28;20027;-60
2023/02/10 03:59:31;;;;;;;31.35;16.52;;;2.20;99.90;;;;;;4968771;28;20031;-62
2023/02/10 04:01:57;;;;;;;27.02;15.13;;;2.10;99.90;;;;;;4970830;28;20030;-62
2023/02/10 04:04:22;;;;;;;29.77;15.85;;;2.10;99.90;;;;;;4971794;28;20022;-62
2023/02/10 04:06:48;;;;;;;32.95;16.05;;;2.10;99.90;;;;;;4972469;28;20385;-61
2023/02/10 04:09:13;;;;;;;33.60;15.77;;;2.10;99.90;;;;;;4970560;28;20527;-62
2023/02/10 04:11:39;;;;;;;31.60;16.05;;;2.10;99.90;;;;;;4971944;28;20081;-61
2023/02/10 04:14:05;;;;;;;31.92;16.92;;;2.10;99.90;;;;;;4972362;28;20386;-61
2023/02/10 04:16:31;;;;;;;33.03;15.65;;;2.10;99.90;;;;;;4971848;28;20041;-62
2023/02/10 04:18:57;;;;;;;29.48;16.42;;;2.10;99.90;;;;;;4972127;28;20026;-60
2023/02/10 04:21:24;;;;;;;29.20;15.95;;;2.10;99.90;;;;;;4971564;28;20034;-61
2023/02/10 04:23:50;;;;;;;36.15;17.65;;;2.00;99.90;;;;;;4971698;28;20026;-61
2023/02/10 04:26:16;;;;;;;29.92;17.45;;;2.10;99.90;;;;;;4971636;28;20449;-61
2023/02/10 04:28:41;;;;;;;33.35;16.60;;;2.10;99.90;;;;;;4971609;28;20046;-63
2023/02/10 04:31:07;;;;;;;39.58;16.85;;;2.10;99.90;;;;;;4971736;28;20019;-61
2023/02/10 04:33:33;;;;;;;38.17;17.73;;;2.10;99.90;;;;;;4971722;28;20394;-61
2023/02/10 04:35:58;;;;;;;35.70;19.52;;;2.10;99.90;;;;;;4971102;28;20054;-61
2023/02/10 04:38:24;;;;;;;32.50;16.65;;;2.10;99.90;;;;;;4971681;28;20030;-61
2023/02/10 04:40:50;;;;;;;39.42;18.50;;;2.10;99.90;;;;;;4971475;28;20031;-62
2023/02/10 04:43:16;;;;;;;33.33;18.65;;;2.10;99.90;;;;;;4971674;28;20533;-60
2023/02/10 04:45:42;;;;;;;32.38;18.95;;;2.10;99.90;;;;;;4970939;28;20165;-62
2023/02/10 04:48:07;;;;;;;34.90;18.40;;;2.10;99.90;;;;;;4970755;28;20089;-61
2023/02/10 04:50:33;;;;;;;36.97;17.02;;;2.10;99.90;;;;;;4971845;28;20027;-60
2023/02/10 04:52:59;;;;;;;38.58;19.17;;;2.10;99.90;;;;;;4971880;28;20029;-61
2023/02/10 04:55:24;;;;;;;30.27;17.48;;;2.10;99.90;;;;;;4970589;28;20030;-61
2023/02/10 04:57:50;;;;;;;29.33;17.92;;;2.10;99.90;;;;;;4971138;28;20062;-61
2023/02/10 05:00:16;;;;;;;32.25;19.70;;;2.10;99.90;;;;;;4968637;28;20049;-62
2023/02/10 05:02:42;;;;;;;35.92;19.45;;;2.10;99.90;;;;;;4970293;28;20062;-58
2023/02/10 05:05:10;;;;;;;34.95;18.73;;;2.10;99.90;;;;;;4970791;28;20085;-59
2023/02/10 05:07:35;;;;;;;34.33;17.92;;;2.10;99.90;;;;;;4970944;28;20038;-60
2023/02/10 05:10:01;;;;;;;36.08;19.20;;;2.10;99.90;;;;;;4970628;28;20023;-61
2023/02/10 05:12:27;;;;;;;42.05;19.77;;;2.10;99.90;;;;;;4971701;28;20022;-60
2023/02/10 05:14:52;;;;;;;33.15;17.95;;;2.20;99.90;;;;;;4970562;28;20097;-60
2023/02/10 05:17:18;;;;;;;35.53;19.67;;;2.10;99.90;;;;;;4970776;28;20027;-61
2023/02/10 05:19:43;;;;;;;32.53;19.42;;;2.10;99.90;;;;;;4997936;23;20046;-56
2023/02/10 05:22:09;;;;;;;36.42;18.58;;;2.10;99.90;;;;;;4990307;28;20022;-56
2023/02/10 05:24:35;;;;;;;37.70;18.65;;;2.20;99.90;;;;;;4991866;28;20126;-57
2023/02/10 05:27:00;;;;;;;33.28;17.20;;;2.20;99.90;;;;;;4989265;28;20034;-57
2023/02/10 05:29:26;;;;;;;41.40;18.92;;;2.20;99.90;;;;;;4997137;28;20091;-59
2023/02/10 05:31:52;;;;;;;43.17;17.88;;;2.20;99.90;;;;;;4990217;28;20061;-54
2023/02/10 05:34:17;;;;;;;29.77;17.50;;;2.20;99.90;;;;;;4990555;28;20487;-57
2023/02/10 05:36:43;;;;;;;36.85;19.90;;;2.20;99.90;;;;;;4988724;28;20037;-54
2023/02/10 05:39:25;;;;;;;39.20;19.20;;;2.20;99.90;;;;;;4990171;28;20068;-56
2023/02/10 05:41:56;;;;;;;33.95;17.40;;;2.20;99.90;;;;;;4988522;28;20378;-57
2023/02/10 05:44:23;;;;;;;38.67;18.70;;;2.20;99.90;;;;;;4988246;28;20134;-56
2023/02/10 05:46:50;;;;;;;33.92;17.02;;;2.20;99.90;;;;;;4988434;28;20026;-53
2023/02/10 05:49:16;;;;;;;38.65;18.65;;;2.20;99.90;;;;;;4988946;28;20026;-58
2023/02/10 05:51:42;;;;;;;35.30;17.88;;;2.20;99.90;;;;;;4989828;28;20026;-59
2023/02/10 05:54:08;;;;;;;40.97;19.55;;;2.20;99.90;;;;;;4988788;28;20110;-55
2023/02/10 05:56:34;;;;;;;27.98;17.98;;;2.20;99.90;;;;;;4988381;28;20034;-58
2023/02/10 05:58:59;;;;;;;29.77;17.58;;;2.20;99.90;;;;;;4989409;28;20033;-58
2023/02/10 06:01:26;;;;;;;36.38;17.20;;;2.20;99.90;;;;;;4988150;28;20113;-58
2023/02/10 06:03:51;;;;;;;32.78;19.08;;;2.20;99.90;;;;;;4990207;28;20109;-58
2023/02/10 06:06:17;;;;;;;45.85;18.45;;;2.20;99.90;;;;;;4989892;28;20129;-57
2023/02/10 06:08:42;;;;;;;34.90;18.55;;;2.20;99.90;;;;;;4989305;28;20030;-55
2023/02/10 06:11:08;;;;;;;34.33;17.58;;;2.20;99.90;;;;;;4989846;28;20022;-59
2023/02/10 06:13:35;;;;;;;29.48;18.08;;;2.10;99.90;;;;;;4989714;28;20027;-58
2023/02/10 06:16:01;;;;;;;31.50;17.42;;;2.10;99.90;;;;;;4989399;28;20022;-58
2023/02/10 06:18:27;;;;;;;30.98;18.63;;;2.10;99.90;;;;;;4989301;28;20062;-59
2023/02/10 06:20:53;;;;;;;35.22;18.92;;;2.20;99.90;;;;;;4989179;28;20026;-59
2023/02/10 06:23:19;;;;;;;41.35;18.52;;;2.20;99.90;;;;;;4989238;28;20032;-55
2023/02/10 06:25:45;;;;;;;29.92;18.42;;;2.20;99.90;;;;;;4989319;28;20497;-58
2023/02/10 06:28:10;;;;;;;33.42;17.45;;;2.20;99.90;;;;;;4989038;28;20465;-59
2023/02/10 06:30:36;;;;;;;34.50;17.67;;;2.20;99.90;;;;;;4988265;28;20109;-56
2023/02/10 06:33:02;;;;;;;33.63;17.48;;;2.10;99.90;;;;;;4989126;28;20109;-58
2023/02/10 06:35:28;;;;;;;38.60;18.08;;;2.10;99.90;;;;;;4988375;28;20504;-57
2023/02/10 06:37:53;;;;;;;32.65;17.17;;;2.10;99.90;;;;;;4971896;28;20101;-55
2023/02/10 06:40:19;;;;;;;34.65;18.02;;;2.10;99.90;;;;;;4987871;28;20507;-55
2023/02/10 06:42:45;;;;;;;29.60;17.20;;;2.20;99.90;;;;;;4987612;28;20109;-57
2023/02/10 06:45:10;;;;;;;32.58;17.45;;;2.20;99.90;;;;;;4989122;28;20065;-56
2023/02/10 06:47:36;;;;;;;32.35;17.23;;;2.20;99.90;;;;;;4988562;28;20033;-52
2023/02/10 06:50:03;;;;;;;32.95;18.05;;;2.20;99.90;;;;;;4986766;28;20022;-52
2023/02/10 06:52:30;;;;;;;32.45;17.05;;;2.20;99.90;;;;;;4986685;28;20496;-54
2023/02/10 06:54:55;;;;;;;36.38;18.08;;;2.20;99.90;;;;;;4988999;28;20022;-56
2023/02/10 06:57:21;;;;;;;30.20;16.80;;;2.20;99.90;;;;;;4987627;28;20049;-53
2023/02/10 06:59:46;;;;;;;32.72;18.10;;;2.20;99.90;;;;;;4986814;28;20050;-56
2023/02/10 07:02:12;;;;;;;39.67;17.77;;;2.20;99.90;;;;;;4988763;28;20467;-56
2023/02/10 07:04:38;;;;;;;34.20;18.70;;;2.20;99.90;;;;;;4988181;28;20037;-55
2023/02/10 07:07:04;;;;;;;34.50;17.65;;;2.20;99.90;;;;;;4987888;28;20026;-56
2023/02/10 07:09:31;;;;;;;44.63;19.80;;;2.30;99.90;;;;;;4986508;28;20138;-54
2023/02/10 07:11:58;;;;;;;34.95;18.90;;;2.30;99.90;;;;;;4987945;28;20061;-55
2023/02/10 07:14:23;;;;;;;33.63;18.17;;;2.30;99.90;;;;;;4988984;28;20408;-57
2023/02/10 07:16:49;;;;;;;36.30;18.23;;;2.30;99.90;;;;;;4987489;28;20041;-56
2023/02/10 07:19:14;;;;;;;28.95;17.88;;;2.30;99.90;;;;;;4988372;28;20041;-54
2023/02/10 07:21:40;;;;;;;35.78;18.10;;;2.40;99.90;;;;;;4986190;28;20054;-56
2023/02/10 07:24:06;;;;;;;33.78;18.67;;;2.40;99.90;;;;;;4988048;28;20484;-55
2023/02/10 07:26:32;;;;;;;29.95;18.00;;;2.40;99.90;;;;;;4987225;28;20097;-56
2023/02/10 07:28:57;;;;;;;41.90;19.73;;;2.30;99.90;;;;;;4987875;28;20035;-52
2023/02/10 07:31:23;;;;;;;28.02;17.00;;;2.30;99.90;;;;;;4987217;28;20093;-56
2023/02/10 07:33:48;;;;;;;29.05;16.95;;;2.40;99.90;;;;;;4984977;28;20027;-55
2023/02/10 07:36:14;;;;;;;34.85;17.20;;;2.40;99.90;;;;;;4991375;28;20034;-55
2023/02/10 07:38:40;;;;;;;30.65;16.00;;;2.40;99.90;;;;;;4992022;28;20034;-56
2023/02/10 07:41:07;;;;;;;32.80;17.13;;;2.50;99.90;;;;;;4992225;28;20057;-55
2023/02/10 07:43:32;;;;;;;36.45;16.95;;;2.50;99.90;;;;;;4991974;28;20419;-55
2023/02/10 07:45:58;;;;;;;31.77;16.25;;;2.50;99.90;;;;;;4991512;28;20031;-57
2023/02/10 07:48:24;;;;;;;34.50;17.42;;;2.50;99.90;;;;;;4991271;28;20554;-55
2023/02/10 07:50:51;;;;;;;35.35;17.23;;;2.60;99.90;;;;;;4991464;28;20106;-57
2023/02/10 07:53:18;;;;;;;34.83;17.52;;;2.60;99.90;;;;;;4991939;28;20499;-56
2023/02/10 07:55:43;;;;;;;30.50;16.58;;;2.70;99.90;;;;;;4992167;28;20030;-58
2023/02/10 07:58:09;;;;;;;37.72;17.17;;;2.70;99.90;;;;;;4991393;28;20607;-57
2023/02/10 08:00:35;;;;;;;34.45;17.42;;;2.70;99.90;;;;;;4990965;28;20034;-57
2023/02/10 08:03:01;;;;;;;37.25;16.80;;;2.70;99.90;;;;;;4991852;28;20026;-55
2023/02/10 08:05:28;;;;;;;33.70;16.73;;;2.80;99.90;;;;;;4991990;28;20271;-55
2023/02/10 08:07:54;;;;;;;26.60;15.95;;;2.80;99.90;;;;;;4989980;28;20026;-57
2023/02/10 08:10:20;;;;;;;36.17;16.35;;;2.80;99.90;;;;;;4990476;28;20649;-53
2023/02/10 08:12:48;;;;;;;36.65;16.75;;;2.80;99.90;;;;;;4991150;28;20045;-55
2023/02/10 08:15:17;;;;;;;29.15;16.00;;;2.90;99.90;;;;;;4989720;28;20026;-55
2023/02/10 08:17:44;;;;;;;28.50;16.88;;;2.90;99.90;;;;;;4991087;28;20396;-57
2023/02/10 08:20:10;;;;;;;40.65;16.67;;;2.90;99.90;;;;;;4990856;28;20072;-55
2023/02/10 08:22:36;;;;;;;33.78;17.23;;;2.90;99.90;;;;;;4991234;28;20552;-55
2023/02/10 08:25:02;;;;;;;32.92;17.90;;;2.90;99.90;;;;;;4990542;28;20185;-51
2023/02/10 08:27:31;;;;;;;30.63;16.60;;;3.00;99.90;;;;;;4990767;28;20061;-56
2023/02/10 08:29:57;;;;;;;47.08;18.25;;;3.00;99.90;;;;;;4990695;28;20388;-54
2023/02/10 08:32:22;;;;;;;32.80;17.20;;;3.00;99.90;;;;;;4990183;28;20150;-56
2023/02/10 08:34:49;;;;;;;32.70;16.60;;;3.00;99.90;;;;;;4988097;28;20054;-54
2023/02/10 08:37:16;;;;;;;30.02;16.65;;;3.10;99.90;;;;;;4989944;28;20621;-56
2023/02/10 08:39:42;;;;;;;33.22;17.92;;;3.10;99.90;;;;;;4990518;28;20034;-54
2023/02/10 08:42:08;;;;;;;37.20;17.48;;;3.10;99.90;;;;;;4991949;28;20374;-56
2023/02/10 08:44:33;;;;;;;25.77;17.40;;;3.10;99.90;;;;;;4988831;28;20790;-55
2023/02/10 08:46:59;;;;;;;29.38;15.90;;;3.10;99.90;;;;;;4991142;28;20022;-59
2023/02/10 08:49:25;;;;;;;30.45;16.90;;;3.20;99.90;;;;;;4972599;28;20409;-56
2023/02/10 08:51:52;;;;;;;37.83;16.88;;;3.20;99.90;;;;;;4989454;28;20482;-54
2023/02/10 08:54:18;;;;;;;41.65;17.55;;;3.30;99.90;;;;;;4990688;28;20034;-54
2023/02/10 08:56:43;;;;;;;34.72;17.35;;;3.40;99.90;;;;;;4991030;28;20018;-57
2023/02/10 08:59:10;;;;;;;32.78;17.98;;;3.40;99.90;;;;;;4989999;28;20053;-57
2023/02/10 09:01:36;;;;;;;32.38;15.65;;;3.40;99.90;;;;;;4990614;28;20382;-57
2023/02/10 09:04:02;;;;;;;36.70;16.20;;;3.40;99.90;;;;;;4990765;28;20038;-57
2023/02/10 09:06:38;;;;;;;29.20;15.95;;;3.50;99.90;;;;;;4990506;28;20117;-57
2023/02/10 09:09:07;;;;;;;31.48;17.25;;;3.50;99.90;;;;;;4996928;28;20019;-56
2023/02/10 09:11:33;;;;;;;37.35;14.93;;;3.50;99.90;;;;;;4990438;28;20093;-57
2023/02/10 09:13:59;;;;;;;29.30;15.75;;;3.50;99.90;;;;;;4989147;28;20558;-55
2023/02/10 09:16:24;;;;;;;33.42;16.42;;;3.50;99.90;;;;;;4990331;28;20030;-57
2023/02/10 09:18:50;;;;;;;32.67;17.25;;;3.60;99.90;;;;;;5005075;28;20030;-56
2023/02/10 09:21:17;;;;;;;32.47;15.15;;;3.60;99.90;;;;;;4990381;28;20030;-55
2023/02/10 09:23:42;;;;;;;34.35;17.67;;;3.60;99.90;;;;;;4990662;28;20038;-54
2023/02/10 09:26:08;;;;;;;36.75;16.20;;;3.60;99.90;;;;;;4990404;28;20121;-55
2023/02/10 09:28:34;;;;;;;40.22;18.95;;;3.60;99.90;;;;;;4990250;28;20030;-54
2023/02/10 09:31:00;;;;;;;36.88;17.30;;;3.60;99.90;;;;;;4990432;28;20019;-57
2023/02/10 09:33:26;;;;;;;32.47;16.75;;;3.60;99.90;;;;;;4988843;28;20037;-54
2023/02/10 09:35:51;;;;;;;32.78;16.08;;;3.60;99.90;;;;;;4990227;28;20037;-56
2023/02/10 09:38:17;;;;;;;33.40;15.95;;;3.60;99.90;;;;;;4990404;28;20034;-56
2023/02/10 09:41:27;;;;;;;32.00;15.88;;;3.70;99.90;;;;;;4989279;28;20034;-52
2023/02/10 09:44:30;;;;;;;28.77;15.43;;;3.60;99.90;;;;;;4990119;28;20062;-56
2023/02/10 09:47:13;;;;;;;40.33;16.60;;;3.60;99.90;;;;;;4989536;28;20493;-55
2023/02/10 09:49:47;;;;;;;33.63;16.23;;;3.70;99.90;;;;;;4988066;28;20030;-57
2023/02/10 09:52:47;;;;;;;31.67;16.13;;;3.70;99.90;;;;;;4990279;28;20105;-56
2023/02/10 09:55:23;;;;;;;33.90;16.13;;;3.70;99.90;;;;;;4989211;28;20110;-56
2023/02/10 09:57:56;;;;;;;37.20;16.55;;;3.70;99.90;;;;;;4988826;28;20289;-56
2023/02/10 10:00:36;;;;;;;25.00;15.82;;;3.70;99.90;;;;;;4989240;28;20069;-57
2023/02/10 10:03:06;;;;;;;34.17;16.52;;;3.70;99.90;;;;;;4987415;28;20038;-55
2023/02/10 10:05:47;;;;;;;35.05;15.40;;;3.70;99.90;;;;;;4987801;28;20088;-56
2023/02/10 10:08:45;;;;;;;29.25;16.00;;;3.70;99.90;;;;;;4988683;28;20508;-55
2023/02/10 10:11:37;;;;;;;31.90;14.80;;;3.70;99.90;;;;;;4987744;28;20065;-56
2023/02/10 10:14:03;;;;;;;27.27;14.48;;;3.70;99.90;;;;;;4986603;28;20508;-56
2023/02/10 10:16:50;;;;;;;30.35;15.38;;;3.70;99.90;;;;;;4988830;28;20024;-56
2023/02/10 10:19:34;;;;;;;29.90;15.55;;;3.80;99.90;;;;;;4986976;28;20032;-56
2023/02/10 10:22:05;;;;;;;33.22;14.95;;;3.80;99.90;;;;;;4989684;28;20026;-52
2023/02/10 10:24:34;;;;;;;35.58;16.42;;;3.80;99.90;;;;;;4988813;28;20202;-55
2023/02/10 10:27:18;;;;;;;37.72;16.02;;;3.90;99.90;;;;;;4989417;28;20026;-56
2023/02/10 10:29:55;;;;;;;36.33;16.20;;;3.90;99.90;;;;;;4988410;28;20034;-55
2023/02/10 10:32:42;;;;;;;34.72;17.85;;;3.90;99.90;;;;;;4988618;28;20021;-56
2023/02/10 10:35:21;;;;;;;32.95;15.95;;;4.00;99.90;;;;;;4988536;28;20038;-56
2023/02/10 10:37:47;;;;;;;34.10;17.13;;;4.00;99.90;;;;;;4987635;28;20023;-57
2023/02/10 10:40:27;;;;;;;34.50;16.10;;;4.10;99.90;;;;;;4988128;28;20033;-57
2023/02/10 10:42:58;;;;;;;37.20;15.48;;;4.10;99.90;;;;;;4988687;28;20030;-57
2023/02/10 10:45:45;;;;;;;24.08;15.23;;;4.20;99.90;;;;;;4984891;28;20049;-54
2023/02/10 10:48:28;;;;;;;26.40;15.77;;;4.20;99.90;;;;;;5004697;28;20061;-55
2023/02/10 10:50:58;;;;;;;25.02;15.02;;;4.20;99.90;;;;;;4988446;28;20101;-55
2023/02/10 10:53:41;;;;;;;31.48;15.90;;;4.30;99.90;;;;;;4988759;28;20057;-56
2023/02/10 10:56:23;;;;;;;30.77;16.00;;;4.40;99.90;;;;;;4988187;28;20104;-57
2023/02/10 10:58:50;;;;;;;31.25;14.82;;;4.40;99.90;;;;;;4989009;28;20045;-57
2023/02/10 11:01:30;;;;;;;23.58;12.98;;;4.50;99.90;;;;;;4988202;28;20037;-57
2023/02/10 11:04:12;;;;;;;26.15;14.68;;;4.60;99.90;;;;;;4986599;28;20212;-57
2023/02/10 11:06:39;;;;;;;20.23;13.80;;;4.70;99.90;;;;;;4987251;28;20030;-54
2023/02/10 11:09:16;;;;;;;24.92;14.43;;;4.70;99.90;;;;;;4988451;28;20094;-53
2023/02/10 11:11:43;;;;;;;25.10;13.57;;;4.80;99.90;;;;;;4991422;28;20105;-53
2023/02/10 11:14:15;;;;;;;32.72;15.80;;;4.80;99.90;;;;;;4990924;28;20026;-52
2023/02/10 11:16:45;;;;;;;28.20;15.00;;;4.80;99.90;;;;;;4992094;28;20018;-52
2023/02/10 11:19:23;;;;;;;30.45;15.25;;;4.90;99.90;;;;;;5009194;23;20049;-58
2023/02/10 11:21:50;;;;;;;25.88;14.43;;;4.90;99.90;;;;;;5008654;28;20172;-61
2023/02/10 11:24:33;;;;;;;26.23;14.85;;;4.90;99.90;;;;;;5011498;28;20364;-63
2023/02/10 11:27:00;;;;;;;24.02;15.00;;;4.90;99.90;;;;;;5011740;28;20022;-62
2023/02/10 11:29:29;;;;;;;27.08;13.50;;;5.00;99.90;;;;;;5007100;28;20065;-60
2023/02/10 11:31:56;;;;;;;26.80;15.00;;;5.00;99.90;;;;;;5002273;28;20484;-62
2023/02/10 11:34:38;;;;;;;24.30;14.10;;;5.10;99.90;;;;;;5002517;28;20069;-63
2023/02/10 11:37:24;;;;;;;31.35;15.10;;;5.10;99.90;;;;;;5002147;28;20022;-61
2023/02/10 11:39:50;;;;;;;22.43;14.40;;;5.10;99.90;;;;;;5002969;28;20025;-59
2023/02/10 11:42:18;;;;;;;26.75;14.52;;;5.10;99.90;;;;;;5001830;28;20877;-61
2023/02/10 11:45:00;;;;;;;26.33;14.23;;;5.00;99.90;;;;;;5001721;28;20625;-62
2023/02/10 11:47:29;;;;;;;31.38;15.25;;;5.00;99.90;;;;;;5001286;28;20085;-62
2023/02/10 11:49:54;;;;;;;24.40;13.32;;;5.00;99.90;;;;;;5002572;28;20041;-61
2023/02/10 11:52:23;;;;;;;25.25;13.70;;;5.00;99.90;;;;;;5002778;28;20018;-59
2023/02/10 11:54:51;;;;;;;24.98;14.68;;;5.10;99.90;;;;;;5002784;28;20018;-59
2023/02/10 12:00:34;;;;;;;21.38;13.27;;;5.20;99.90;;;;;;5003257;28;20077;-63
2023/02/10 12:03:21;;;;;;;22.30;13.50;;;5.20;99.90;;;;;;5002106;28;20030;-62
2023/02/10 12:06:05;;;;;;;24.17;13.32;;;5.30;99.90;;;;;;5001768;28;20404;-62
2023/02/10 12:08:58;;;;;;;30.67;14.60;;;5.30;99.90;;;;;;5001452;28;20032;-59
2023/02/10 12:11:39;;;;;;;28.92;13.80;;;5.40;99.90;;;;;;5002666;28;20031;-60
2023/02/10 12:14:23;;;;;;;19.67;12.55;;;5.50;99.90;;;;;;5001918;28;20023;-60
2023/02/10 12:17:04;;;;;;;25.92;14.50;;;5.60;99.90;;;;;;5001898;28;20071;-58
2023/02/10 12:19:57;;;;;;;19.77;12.48;;;5.60;99.90;;;;;;5001267;28;20037;-60
2023/02/10 12:22:28;;;;;;;20.75;11.60;;;5.70;99.90;;;;;;5001552;28;20024;-61
2023/02/10 12:25:19;;;;;;;19.70;12.05;;;5.80;99.90;;;;;;5001469;28;20030;-60
2023/02/10 12:28:21;;;;;;;14.68;11.40;;;5.80;99.90;;;;;;5000546;28;20030;-58
2023/02/10 12:31:18;;;;;;;18.35;12.07;;;5.80;99.90;;;;;;4998786;28;20022;-60
2023/02/10 12:33:58;;;;;;;20.20;11.20;;;5.90;99.90;;;;;;5002183;28;20076;-59
2023/02/10 12:36:45;;;;;;;20.58;11.70;;;5.90;99.90;;;;;;5001059;28;20547;-55
2023/02/10 12:39:22;;;;;;;;;;;6.00;99.90;;;;;;5002082;28;20485;-58
2023/02/10 12:42:06;;;;;;;;;;;6.00;99.90;;;;;;5002378;28;19913;-59
2023/02/10 12:44:54;;;;;;;16.92;9.55;;;6.10;99.90;;;;;;5000049;28;19920;-62
2023/02/10 12:47:33;;;;;;;20.02;10.07;;;6.10;99.90;;;;;;5001333;28;20050;-58
2023/02/10 12:50:30;;;;;;;17.23;8.82;;;6.20;99.90;;;;;;5001424;28;20020;-58
2023/02/10 12:53:02;;;;;;;17.10;9.85;;;6.20;99.90;;;;;;5001711;28;20018;-58
2023/02/10 12:55:38;;;;;;;16.98;9.07;;;6.30;99.90;;;;;;5000585;28;20038;-61